createdAt,value
2023-04-28T00:00:37.976Z,8.38
2023-04-28T00:03:05.745Z,8.32
2023-04-28T00:05:33.470Z,7.95
2023-04-28T00:08:01.137Z,9.23
2023-04-28T00:10:29.232Z,8.68
2023-04-28T00:12:56.754Z,9.05
2023-04-28T00:15:24.566Z,9.40
2023-04-28T00:17:52.421Z,8.82
2023-04-28T00:20:20.045Z,8.88
2023-04-28T00:22:49.450Z,9.27
2023-04-28T00:25:17.206Z,9.05
2023-04-28T00:27:44.721Z,9.30
2023-04-28T00:30:12.657Z,8.30
2023-04-28T00:32:40.489Z,9.68
2023-04-28T00:35:08.677Z,8.95
2023-04-28T00:37:37.964Z,8.63
2023-04-28T00:40:06.568Z,9.02
2023-04-28T00:42:34.097Z,9.38
2023-04-28T00:45:05.892Z,9.63
2023-04-28T00:47:35.066Z,10.15
2023-04-28T00:50:08.202Z,10.00
2023-04-28T00:52:36.895Z,8.85
2023-04-28T00:55:05.805Z,9.65
2023-04-28T00:57:34.150Z,9.88
2023-04-28T01:00:03.417Z,9.63
2023-04-28T01:02:31.788Z,9.10
2023-04-28T01:05:01.424Z,9.18
2023-04-28T01:07:29.699Z,9.65
2023-04-28T01:09:57.256Z,9.65
2023-04-28T01:12:30.765Z,9.85
2023-04-28T01:14:59.580Z,9.82
2023-04-28T01:17:28.953Z,9.95
2023-04-28T01:19:56.891Z,10.25
2023-04-28T01:22:24.488Z,9.85
2023-04-28T01:24:52.146Z,9.85
2023-04-28T01:27:19.751Z,10.05
2023-04-28T01:29:47.269Z,9.57
2023-04-28T01:32:14.957Z,10.45
2023-04-28T01:34:42.814Z,9.48
2023-04-28T01:37:10.713Z,9.80
2023-04-28T01:39:38.326Z,10.82
2023-04-28T01:42:06.508Z,10.73
2023-04-28T01:44:34.974Z,10.38
2023-04-28T01:47:02.535Z,10.15
2023-04-28T01:49:30.168Z,10.13
2023-04-28T01:51:57.823Z,11.88
2023-04-28T01:54:26.026Z,11.57
2023-04-28T01:56:53.950Z,11.90
2023-04-28T01:59:22.517Z,10.88
2023-04-28T02:01:50.179Z,11.32
2023-04-28T02:04:18.385Z,11.15
2023-04-28T02:06:46.218Z,11.88
2023-04-28T02:09:14.065Z,11.52
2023-04-28T02:11:41.718Z,12.27
2023-04-28T02:14:09.208Z,12.25
2023-04-28T02:16:36.771Z,12.05
2023-04-28T02:19:04.306Z,12.43
2023-04-28T02:21:32.010Z,12.55
2023-04-28T02:23:59.699Z,11.57
2023-04-28T02:26:27.335Z,12.25
2023-04-28T02:28:55.062Z,11.25
2023-04-28T02:31:22.662Z,11.88
2023-04-28T02:33:50.466Z,12.20
2023-04-28T02:36:18.404Z,11.65
2023-04-28T02:38:46.083Z,12.88
2023-04-28T02:41:15.282Z,12.07
2023-04-28T02:43:42.865Z,13.48
2023-04-28T02:46:11.374Z,12.07
2023-04-28T02:48:39.101Z,12.60
2023-04-28T02:51:07.524Z,11.88
2023-04-28T02:53:36.214Z,12.52
2023-04-28T02:56:04.596Z,12.25
2023-04-28T02:58:33.431Z,12.48
2023-04-28T03:01:02.877Z,12.50
2023-04-28T03:03:30.704Z,13.00
2023-04-28T03:05:58.436Z,12.98
2023-04-28T03:08:26.045Z,12.43
2023-04-28T03:10:54.888Z,12.82
2023-04-28T03:13:23.004Z,12.38
2023-04-28T03:15:51.005Z,13.90
2023-04-28T03:18:18.744Z,13.60
2023-04-28T03:20:47.629Z,13.35
2023-04-28T03:23:15.681Z,14.05
2023-04-28T03:25:43.238Z,13.85
2023-04-28T03:28:11.016Z,13.30
2023-04-28T03:30:38.561Z,13.80
2023-04-28T03:33:06.214Z,14.57
2023-04-28T03:35:34.143Z,15.07
2023-04-28T03:38:02.265Z,14.18
2023-04-28T03:40:29.809Z,15.30
2023-04-28T03:43:23.788Z,15.23
2023-04-28T03:46:09.770Z,15.18
2023-04-28T03:48:37.507Z,16.10
2023-04-28T03:51:05.247Z,15.85
2023-04-28T03:53:32.899Z,15.82
2023-04-28T03:56:00.703Z,15.70
2023-04-28T03:58:28.710Z,16.15
2023-04-28T04:00:56.380Z,16.33
2023-04-28T04:03:26.525Z,16.20
2023-04-28T04:05:57.133Z,17.48
2023-04-28T04:08:25.445Z,17.35
2023-04-28T04:10:54.800Z,17.10
2023-04-28T04:13:22.897Z,18.00
2023-04-28T04:15:52.771Z,17.13
2023-04-28T04:18:22.204Z,17.73
2023-04-28T04:21:18.992Z,18.00
2023-04-28T04:23:47.899Z,16.25
2023-04-28T04:26:15.632Z,18.70
2023-04-28T04:28:43.208Z,18.65
2023-04-28T04:31:12.448Z,19.25
2023-04-28T04:33:40.072Z,17.42
2023-04-28T04:36:08.338Z,19.65
2023-04-28T04:38:36.089Z,18.35
2023-04-28T04:41:13.659Z,18.20
2023-04-28T04:43:41.308Z,18.90
2023-04-28T04:46:08.969Z,20.15
2023-04-28T04:48:36.639Z,19.70
2023-04-28T04:51:04.614Z,19.48
2023-04-28T04:53:33.044Z,19.63
2023-04-28T04:56:01.437Z,18.35
2023-04-28T04:58:31.428Z,19.00
2023-04-28T05:01:13.404Z,19.08
2023-04-28T05:03:42.296Z,20.17
2023-04-28T05:06:10.087Z,18.88
2023-04-28T05:08:46.706Z,19.25
2023-04-28T05:11:14.378Z,18.77
2023-04-28T05:13:42.343Z,20.55
2023-04-28T05:16:10.157Z,20.50
2023-04-28T05:18:37.709Z,20.05
2023-04-28T05:21:05.434Z,19.42
2023-04-28T05:23:34.097Z,20.13
2023-04-28T05:26:03.183Z,19.92
2023-04-28T05:28:31.659Z,21.05
2023-04-28T05:31:02.292Z,19.77
2023-04-28T05:33:31.576Z,19.63
2023-04-28T05:35:59.953Z,20.50
2023-04-28T05:38:27.812Z,18.95
2023-04-28T05:40:56.848Z,19.23
2023-04-28T05:43:24.528Z,20.17
2023-04-28T05:45:52.651Z,18.30
2023-04-28T05:48:20.466Z,19.60
2023-04-28T05:50:48.094Z,20.65
2023-04-28T05:53:15.633Z,19.20
2023-04-28T05:55:43.441Z,18.85
2023-04-28T05:58:11.422Z,19.75
2023-04-28T06:00:38.940Z,18.38
2023-04-28T06:03:08.710Z,18.42
2023-04-28T06:05:37.508Z,19.90
2023-04-28T06:08:09.352Z,19.30
2023-04-28T06:10:38.147Z,19.00
2023-04-28T06:13:06.580Z,17.80
2023-04-28T06:15:34.324Z,18.08
2023-04-28T06:18:02.289Z,17.00
2023-04-28T06:20:32.319Z,17.25
2023-04-28T06:22:59.873Z,16.73
2023-04-28T06:25:27.526Z,17.40
2023-04-28T06:27:55.197Z,16.92
2023-04-28T06:30:23.507Z,17.25
2023-04-28T06:32:51.663Z,17.30
2023-04-28T06:35:19.519Z,16.65
2023-04-28T06:37:47.254Z,17.17
2023-04-28T06:40:15.921Z,17.15
2023-04-28T06:42:49.409Z,17.30
2023-04-28T06:45:25.014Z,17.38
2023-04-28T06:47:55.826Z,16.45
2023-04-28T06:50:24.575Z,16.77
2023-04-28T06:52:52.301Z,16.98
2023-04-28T06:55:19.849Z,16.30
2023-04-28T06:57:47.467Z,17.33
2023-04-28T07:00:16.156Z,15.93
2023-04-28T07:02:43.858Z,16.35
2023-04-28T07:05:11.565Z,16.50
2023-04-28T07:07:39.734Z,16.77
2023-04-28T07:10:08.395Z,17.10
2023-04-28T07:12:38.583Z,15.32
2023-04-28T07:15:07.723Z,15.43
2023-04-28T07:17:39.576Z,16.55
2023-04-28T07:20:08.035Z,15.47
2023-04-28T07:22:35.811Z,16.45
2023-04-28T07:25:04.657Z,14.82
2023-04-28T07:27:32.294Z,15.38
2023-04-28T07:30:01.902Z,14.02
2023-04-28T07:32:34.728Z,15.43
2023-04-28T07:35:02.630Z,13.98
2023-04-28T07:37:31.268Z,14.95
2023-04-28T07:40:00.107Z,13.75
2023-04-28T07:42:30.475Z,14.68
2023-04-28T07:44:58.855Z,14.80
2023-04-28T07:47:27.392Z,14.70
2023-04-28T07:49:54.989Z,14.63
2023-04-28T07:52:22.815Z,15.05
2023-04-28T07:54:50.559Z,13.95
2023-04-28T07:57:18.075Z,15.38
2023-04-28T07:59:45.994Z,15.10
2023-04-28T08:02:14.974Z,13.55
2023-04-28T08:04:42.898Z,14.55
2023-04-28T08:07:10.948Z,13.52
2023-04-28T08:09:41.119Z,14.77
2023-04-28T08:12:09.345Z,14.33
2023-04-28T08:14:37.164Z,13.95
2023-04-28T08:17:04.853Z,14.13
2023-04-28T08:19:33.252Z,14.25
2023-04-28T08:22:05.603Z,16.35
2023-04-28T08:24:36.876Z,15.80
2023-04-28T08:27:04.539Z,16.17
2023-04-28T08:29:33.101Z,16.38
2023-04-28T08:32:04.799Z,16.08
2023-04-28T08:34:33.655Z,16.50
2023-04-28T08:37:01.796Z,17.50
2023-04-28T08:39:30.751Z,17.88
2023-04-28T08:41:58.416Z,19.50
2023-04-28T08:44:26.334Z,19.30
2023-04-28T08:46:59.557Z,19.08
2023-04-28T08:49:36.271Z,18.98
2023-04-28T08:52:16.844Z,19.58
2023-04-28T08:54:49.153Z,19.63
2023-04-28T08:57:19.619Z,18.88
2023-04-28T08:59:47.885Z,18.52
2023-04-28T09:02:15.469Z,18.98
2023-04-28T09:04:43.458Z,19.35
2023-04-28T09:07:12.745Z,18.30
2023-04-28T09:09:41.150Z,19.13
2023-04-28T09:12:09.074Z,17.75
2023-04-28T09:14:39.077Z,17.38
2023-04-28T09:17:14.359Z,17.40
2023-04-28T09:19:43.310Z,16.75
2023-04-28T09:22:25.351Z,16.08
2023-04-28T09:24:55.760Z,16.08
2023-04-28T09:27:28.376Z,15.85
2023-04-28T09:29:56.387Z,15.07
2023-04-28T09:32:24.809Z,15.27
2023-04-28T09:34:56.796Z,14.55
2023-04-28T09:37:27.599Z,14.55
2023-04-28T09:39:55.405Z,15.68
2023-04-28T09:42:42.255Z,13.82
2023-04-28T09:45:15.008Z,13.43
2023-04-28T09:47:46.927Z,13.63
2023-04-28T09:50:17.518Z,14.15
2023-04-28T09:52:57.311Z,14.35
2023-04-28T09:55:26.993Z,13.13
2023-04-28T09:57:55.791Z,13.60
2023-04-28T10:00:24.644Z,13.43
2023-04-28T10:02:53.495Z,13.82
2023-04-28T10:05:23.466Z,13.60
2023-04-28T10:07:54.114Z,13.93
2023-04-28T10:10:22.495Z,14.45
2023-04-28T10:12:51.709Z,14.85
2023-04-28T10:15:19.558Z,14.68
2023-04-28T10:17:50.976Z,15.48
2023-04-28T10:20:20.066Z,15.75
2023-04-28T10:23:47.703Z,15.38
2023-04-28T10:26:21.942Z,15.75
2023-04-28T10:28:52.032Z,16.02
2023-04-28T10:31:22.910Z,16.48
2023-04-28T10:33:50.692Z,16.38
2023-04-28T10:36:53.115Z,16.00
2023-04-28T10:39:21.355Z,16.13
2023-04-28T10:41:49.301Z,17.08
2023-04-28T10:44:28.947Z,16.85
2023-04-28T10:47:08.239Z,17.25
2023-04-28T10:49:57.737Z,17.20
2023-04-28T10:52:40.714Z,17.02
2023-04-28T10:55:37.415Z,18.45
2023-04-28T10:58:17.855Z,16.98
2023-04-28T11:00:50.872Z,14.90
2023-04-28T11:03:50.433Z,16.23
2023-04-28T11:06:36.397Z,15.43
2023-04-28T11:09:32.605Z,16.27
2023-04-28T11:12:00.217Z,18.63
2023-04-28T11:14:34.212Z,20.15
2023-04-28T11:17:05.033Z,22.00
2023-04-28T11:19:37.694Z,24.30
2023-04-28T11:22:14.056Z,27.58
2023-04-28T11:24:42.141Z,29.42
2023-04-28T11:27:09.835Z,31.88
2023-04-28T11:29:40.059Z,32.10
2023-04-28T11:32:10.226Z,32.60
2023-04-28T11:34:38.151Z,32.78
2023-04-28T11:37:08.493Z,33.88
2023-04-28T11:39:36.232Z,33.08
2023-04-28T11:42:11.254Z,32.90
2023-04-28T11:44:39.154Z,34.08
2023-04-28T11:47:07.863Z,33.17
2023-04-28T11:49:46.417Z,33.13
2023-04-28T11:52:14.073Z,33.67
2023-04-28T11:54:44.425Z,32.67
2023-04-28T11:57:20.276Z,32.05
2023-04-28T11:59:48.908Z,33.30
2023-04-28T12:02:28.441Z,33.70
2023-04-28T12:04:56.467Z,31.88
2023-04-28T12:07:24.574Z,29.70
2023-04-28T12:10:18.765Z,29.45
2023-04-28T12:17:48.716Z,27.00
2023-04-28T12:20:38.470Z,27.02
2023-04-28T12:23:08.411Z,28.98
2023-04-28T12:25:47.963Z,28.77
2023-04-28T12:28:15.617Z,28.52
2023-04-28T12:30:43.658Z,28.30
2023-04-28T12:33:25.577Z,29.95
2023-04-28T12:35:57.051Z,30.33
2023-04-28T12:40:53.788Z,30.58
2023-04-28T12:43:23.539Z,26.05
2023-04-28T12:45:56.524Z,27.52
2023-04-28T12:48:25.160Z,25.98
2023-04-28T12:50:52.828Z,25.48
2023-04-28T12:53:20.379Z,24.42
2023-04-28T12:55:50.606Z,23.70
2023-04-28T12:58:18.426Z,24.17
2023-04-28T13:00:46.002Z,22.73
2023-04-28T13:03:15.873Z,23.50
2023-04-28T13:05:44.216Z,23.10
2023-04-28T13:08:12.829Z,24.02
2023-04-28T13:10:40.886Z,24.20
2023-04-28T13:13:08.417Z,24.95
2023-04-28T13:15:38.652Z,24.63
2023-04-28T13:18:06.645Z,23.40
2023-04-28T13:20:34.201Z,15.75
2023-04-28T13:23:01.776Z,8.05
2023-04-28T13:25:30.084Z,6.35
2023-04-28T13:27:57.808Z,6.47
2023-04-28T13:30:25.633Z,5.55
2023-04-28T13:32:54.895Z,6.20
2023-04-28T13:35:24.634Z,6.13
2023-04-28T13:38:02.673Z,6.75
2023-04-28T13:40:32.230Z,8.57
2023-04-28T13:42:59.941Z,9.55
2023-04-28T13:45:28.634Z,10.15
2023-04-28T13:47:56.247Z,10.48
2023-04-28T13:50:23.866Z,9.77
2023-04-28T13:52:51.878Z,10.13
2023-04-28T13:55:19.725Z,9.60
2023-04-28T13:57:47.435Z,10.07
2023-04-28T14:00:15.648Z,8.93
2023-04-28T14:02:43.841Z,8.85
2023-04-28T14:05:11.881Z,8.13
2023-04-28T14:07:39.516Z,6.72
2023-04-28T14:10:07.654Z,8.13
2023-04-28T14:12:35.432Z,7.65
2023-04-28T14:15:03.139Z,7.20
2023-04-28T14:17:30.887Z,6.78
2023-04-28T14:20:01.896Z,7.15
2023-04-28T14:22:30.896Z,6.60
2023-04-28T14:24:58.536Z,6.47
2023-04-28T14:27:28.206Z,6.30
2023-04-28T14:29:55.913Z,5.93
2023-04-28T14:32:23.494Z,6.55
2023-04-28T14:34:52.117Z,7.32
2023-04-28T14:37:19.899Z,6.00
2023-04-28T14:39:49.161Z,6.72
2023-04-28T14:42:17.445Z,6.70
2023-04-28T14:44:45.263Z,6.43
2023-04-28T14:47:13.770Z,7.65
2023-04-28T14:49:41.523Z,6.97
2023-04-28T14:52:09.600Z,7.10
2023-04-28T14:54:37.249Z,6.43
2023-04-28T14:57:04.977Z,6.80
2023-04-28T14:59:32.714Z,5.30
2023-04-28T15:02:00.333Z,4.53
2023-04-28T15:04:30.930Z,3.63
2023-04-28T15:06:59.719Z,3.87
2023-04-28T15:09:28.225Z,3.50
2023-04-28T15:11:55.978Z,3.60
2023-04-28T15:14:23.605Z,3.80
2023-04-28T15:16:51.291Z,3.80
2023-04-28T15:19:18.877Z,4.43
2023-04-28T15:21:47.089Z,5.10
2023-04-28T15:24:16.459Z,5.18
2023-04-28T15:26:44.030Z,5.13
2023-04-28T15:29:12.166Z,5.07
2023-04-28T15:31:41.114Z,5.15
2023-04-28T15:34:09.076Z,4.82
2023-04-28T15:36:39.354Z,4.72
2023-04-28T15:39:07.562Z,5.20
2023-04-28T15:41:35.835Z,5.00
2023-04-28T15:44:04.906Z,5.70
2023-04-28T15:46:32.939Z,5.72
2023-04-28T15:49:00.765Z,6.38
2023-04-28T15:51:28.671Z,6.75
2023-04-28T15:53:57.087Z,6.72
2023-04-28T15:56:24.901Z,6.57
2023-04-28T15:58:52.679Z,6.90
2023-04-28T16:01:21.131Z,7.75
2023-04-28T16:03:48.900Z,7.95
2023-04-28T16:06:16.923Z,8.35
2023-04-28T16:08:44.545Z,7.95
2023-04-28T16:11:17.800Z,7.97
2023-04-28T16:13:45.519Z,8.68
2023-04-28T16:16:13.200Z,8.77
2023-04-28T16:18:40.953Z,8.75
2023-04-28T16:21:08.619Z,8.60
2023-04-28T16:23:36.655Z,8.70
2023-04-28T16:26:04.474Z,10.35
2023-04-28T16:28:32.888Z,10.18
2023-04-28T16:31:00.708Z,10.73
2023-04-28T16:33:29.798Z,11.10
2023-04-28T16:35:59.734Z,9.38
2023-04-28T16:38:27.366Z,9.75
2023-04-28T16:40:55.235Z,9.38
2023-04-28T16:43:22.805Z,8.52
2023-04-28T16:45:50.419Z,10.00
2023-04-28T16:48:20.491Z,9.35
2023-04-28T16:50:48.138Z,9.45
2023-04-28T16:53:16.047Z,9.77
2023-04-28T16:55:43.665Z,9.55
2023-04-28T16:58:11.367Z,9.02
2023-04-28T17:00:39.302Z,9.80
2023-04-28T17:03:07.099Z,9.45
2023-04-28T17:05:35.224Z,8.38
2023-04-28T17:08:03.364Z,8.18
2023-04-28T17:10:31.139Z,8.18
2023-04-28T17:12:58.993Z,9.48
2023-04-28T17:18:19.140Z,9.07
2023-04-28T17:20:47.570Z,9.27
2023-04-28T17:23:16.318Z,9.55
2023-04-28T17:25:44.187Z,9.20
2023-04-28T17:28:11.927Z,10.32
2023-04-28T17:30:42.020Z,10.25
2023-04-28T17:33:10.260Z,10.65
2023-04-28T17:35:38.098Z,10.25
2023-04-28T17:38:06.499Z,10.88
2023-04-28T17:40:34.160Z,10.65
2023-04-28T17:43:02.692Z,11.57
2023-04-28T17:45:30.484Z,11.07
2023-04-28T17:48:00.692Z,11.63
2023-04-28T17:50:28.642Z,11.55
2023-04-28T17:52:56.494Z,11.23
2023-04-28T17:55:24.540Z,11.65
2023-04-28T17:57:52.225Z,10.85
2023-04-28T18:00:20.030Z,12.63
2023-04-28T18:02:47.670Z,12.00
2023-04-28T18:05:17.412Z,12.45
2023-04-28T18:07:45.094Z,11.32
2023-04-28T18:10:12.735Z,11.38
2023-04-28T18:12:40.529Z,12.00
2023-04-28T18:15:09.572Z,12.45
2023-04-28T18:17:37.789Z,12.43
2023-04-28T18:20:06.541Z,12.05
2023-04-28T18:22:34.653Z,11.73
2023-04-28T18:25:02.840Z,12.38
2023-04-28T18:27:57.033Z,12.23
2023-04-28T18:30:40.339Z,12.05
2023-04-28T18:33:09.485Z,11.15
2023-04-28T18:35:37.258Z,9.73
2023-04-28T18:38:05.997Z,10.75
2023-04-28T18:40:37.501Z,8.18
2023-04-28T18:43:08.547Z,7.97
2023-04-28T18:45:41.164Z,7.68
2023-04-28T18:48:10.269Z,7.93
2023-04-28T18:50:38.185Z,8.40
2023-04-28T18:53:08.426Z,7.63
2023-04-28T18:55:36.980Z,6.95
2023-04-28T18:58:05.298Z,6.75
2023-04-28T19:00:36.890Z,7.15
2023-04-28T19:03:04.971Z,7.18
2023-04-28T19:05:33.931Z,6.40
2023-04-28T19:08:01.530Z,5.88
2023-04-28T19:10:29.219Z,5.63
2023-04-28T19:12:57.351Z,5.43
2023-04-28T19:15:27.532Z,5.85
2023-04-28T19:17:56.272Z,5.97
2023-04-28T19:20:24.097Z,5.65
2023-04-28T19:22:51.886Z,5.80
2023-04-28T19:25:19.469Z,5.72
2023-04-28T19:27:47.445Z,6.25
2023-04-28T19:30:15.524Z,7.75
2023-04-28T19:32:43.363Z,7.78
2023-04-28T19:35:11.020Z,8.48
2023-04-28T19:37:38.807Z,9.02
2023-04-28T19:40:08.603Z,9.40
2023-04-28T19:42:36.288Z,11.13
2023-04-28T19:45:07.702Z,10.90
2023-04-28T19:47:45.997Z,11.80
2023-04-28T19:50:13.661Z,12.15
2023-04-28T19:52:46.517Z,13.20
2023-04-28T19:55:18.620Z,12.48
2023-04-28T19:57:46.746Z,14.27
2023-04-28T20:00:15.060Z,14.02
2023-04-28T20:02:45.813Z,12.57
2023-04-28T20:05:14.962Z,11.33
2023-04-28T20:07:42.736Z,11.63
2023-04-28T20:10:12.708Z,10.90
2023-04-28T20:12:41.647Z,11.13
2023-04-28T20:15:09.560Z,11.82
2023-04-28T20:17:37.285Z,12.57
2023-04-28T20:20:05.980Z,12.65
2023-04-28T20:22:36.189Z,13.93
2023-04-28T20:25:05.954Z,14.77
2023-04-28T20:27:34.356Z,13.80
2023-04-28T20:30:04.040Z,15.18
2023-04-28T20:32:31.883Z,15.43
2023-04-28T20:34:59.549Z,17.23
2023-04-28T20:37:27.193Z,17.55
2023-04-28T20:39:54.912Z,19.20
2023-04-28T20:42:22.532Z,19.73
2023-04-28T20:44:50.920Z,21.13
2023-04-28T20:47:18.862Z,21.88
2023-04-28T20:49:47.562Z,21.13
2023-04-28T20:52:15.199Z,22.30
2023-04-28T20:54:43.790Z,23.15
2023-04-28T20:57:11.429Z,23.38
2023-04-28T20:59:39.020Z,23.95
2023-04-28T21:02:09.586Z,22.90
2023-04-28T21:04:37.422Z,23.85
2023-04-28T21:07:05.055Z,23.05
2023-04-28T21:09:33.267Z,24.05
2023-04-28T21:12:02.152Z,24.92
2023-04-28T21:14:30.011Z,25.13
2023-04-28T21:16:57.674Z,25.13
2023-04-28T21:19:25.963Z,25.67
2023-04-28T21:21:53.601Z,27.20
2023-04-28T21:24:21.873Z,25.50
2023-04-28T21:26:49.506Z,25.52
2023-04-28T21:29:18.495Z,26.13
2023-04-28T21:31:46.283Z,26.45
2023-04-28T21:34:14.036Z,26.73
2023-04-28T21:36:42.078Z,27.27
2023-04-28T21:39:10.484Z,27.05
2023-04-28T21:41:38.398Z,28.02
2023-04-28T21:44:06.367Z,28.42
2023-04-28T21:46:34.306Z,28.75
2023-04-28T21:49:01.932Z,29.20
2023-04-28T21:51:29.774Z,29.85
2023-04-28T21:53:57.484Z,29.20
2023-04-28T21:56:25.170Z,30.20
2023-04-28T21:58:52.807Z,31.33
2023-04-28T22:01:20.846Z,31.02
2023-04-28T22:03:48.903Z,32.42
2023-04-28T22:06:16.831Z,32.60
2023-04-28T22:08:44.518Z,33.53
2023-04-28T22:11:12.527Z,33.55
2023-04-28T22:13:40.344Z,32.15
2023-04-28T22:16:08.594Z,35.78
2023-04-28T22:18:36.380Z,34.20
2023-04-28T22:21:04.200Z,35.22
2023-04-28T22:23:31.927Z,36.55
2023-04-28T22:25:59.773Z,36.63
2023-04-28T22:28:27.524Z,37.05
2023-04-28T22:30:55.213Z,37.38
2023-04-28T22:33:23.164Z,40.42
2023-04-28T22:35:50.903Z,40.97
2023-04-28T22:38:18.533Z,43.50
2023-04-28T22:40:46.414Z,46.03
2023-04-28T22:43:14.264Z,46.70
2023-04-28T22:45:45.753Z,46.72
2023-04-28T22:48:15.608Z,45.00
2023-04-28T22:50:43.541Z,45.08
2023-04-28T22:53:11.104Z,47.28
2023-04-28T22:55:39.834Z,46.20
2023-04-28T22:58:07.641Z,47.58
2023-04-28T23:00:35.856Z,49.72
2023-04-28T23:03:05.086Z,49.55
2023-04-28T23:05:32.720Z,49.83
2023-04-28T23:08:01.374Z,51.97
2023-04-28T23:10:29.092Z,47.67
2023-04-28T23:12:57.072Z,53.47
2023-04-28T23:15:24.645Z,54.03
2023-04-28T23:17:52.332Z,53.90
2023-04-28T23:20:20.300Z,44.30
2023-04-28T23:22:47.880Z,47.40
2023-04-28T23:25:15.792Z,49.05
2023-04-28T23:27:43.487Z,44.90
2023-04-28T23:30:12.242Z,42.80
2023-04-28T23:32:39.946Z,44.80
2023-04-28T23:35:08.472Z,42.70
2023-04-28T23:37:36.358Z,42.55
2023-04-28T23:40:04.963Z,42.58
2023-04-28T23:42:32.572Z,41.40
2023-04-28T23:45:01.443Z,41.85
2023-04-28T23:47:29.508Z,40.00
2023-04-28T23:49:57.154Z,37.67
2023-04-28T23:52:24.915Z,39.67
2023-04-28T23:54:52.540Z,35.28
2023-04-28T23:57:20.269Z,36.28
2023-04-28T23:59:50.371Z,37.47
